Flying Circus — 2CLI8 — position and weather

sailwx.info

Track history (hours):
 
Tides and Currents Weather Stations Pressure Air Temp Water Temp Dewpoint Dewpoint Depression Visibility Wind Speed Wind Dir Waves Ship Positions

Flying Circus

Last reported at 2018-Jun-14 16:39 UTC. Time now 2018-Jun-20 17:28 UTC.
Position N 38°51' E 001°28'.

Length 9 m.

MMSI: 235073777.

Date/timePositionNaut miles runAvg speedWind from/ knotsBaromVisibWave heightAir tempDewpointWater temp
2018-Jun-14 16:39N 38°51' E 001°28'1 6.8
2018-Jun-14 16:30N 38°52' E 001°28'2 0.6
2018-Jun-14 12:06N 38°55' E 001°27'0 0.9
2018-Jun-14 11:57N 38°55' E 001°27'1 3.1
2018-Jun-14 11:30N 38°54' E 001°29'3 4.8
2018-Jun-14 10:53N 38°56' E 001°32'1 0.0
2018-Jun-13 12:15N 38°57' E 001°31'0 0.2
2018-Jun-13 11:58N 38°57' E 001°31'1 2.2
2018-Jun-13 11:29N 38°57' E 001°33'2 3.9
2018-Jun-13 11:00N 38°59' E 001°35'0 0.0
2018-Jun-12 13:44N 38°59' E 001°35'1 5.1
2018-Jun-12 13:29N 38°58' E 001°34'6 0.3
2018-Jun-11 14:09N 38°55' E 001°27'0 2.2
2018-Jun-11 13:59N 38°54' E 001°27'4 0.1
2018-Jun-09 11:29N 38°57' E 001°32'1 0.0
2018-Jun-07 13:11N 38°57' E 001°32'1 4.6
2018-Jun-07 13:00N 38°58' E 001°33'53 1.1
2018-Jun-05 12:34N 39°27' E 002°31'1 4.7
2018-Jun-05 12:24N 39°26' E 002°31'2 5.8
2018-Jun-05 11:59N 39°28' E 002°33'3 6.5
2018-Jun-05 11:30N 39°31' E 002°34'2 3.6
2018-Jun-05 11:00N 39°31' E 002°36'3 6.3
2018-Jun-05 10:30N 39°31' E 002°40'3 6.5
2018-Jun-05 10:00N 39°30' E 002°44'0 0.4
2018-Jun-05 09:30N 39°30' E 002°45'  
Track history (hours):
 
Tides and Currents Weather Stations Pressure Air Temp Water Temp Dewpoint Dewpoint Depression Visibility Wind Speed Wind Dir Waves Ship Positions

Flying Circus

Last reported at 2018-Jun-14 16:39 UTC. Time now 2018-Jun-20 17:28 UTC.
Position N 38°51' E 001°28'.

Length 9 m.

MMSI: 235073777.

Date/timePositionNaut miles runAvg speedWind from/ knotsBaromVisibWave heightAir tempDewpointWater temp
2018-Jun-14 16:39N 38°51' E 001°28'1 6.8
2018-Jun-14 16:30N 38°52' E 001°28'2 0.6
2018-Jun-14 12:06N 38°55' E 001°27'0 0.9
2018-Jun-14 11:57N 38°55' E 001°27'1 3.1
2018-Jun-14 11:30N 38°54' E 001°29'3 4.8
2018-Jun-14 10:53N 38°56' E 001°32'1 0.0
2018-Jun-13 12:15N 38°57' E 001°31'0 0.2
2018-Jun-13 11:58N 38°57' E 001°31'1 2.2
2018-Jun-13 11:29N 38°57' E 001°33'2 3.9
2018-Jun-13 11:00N 38°59' E 001°35'0 0.0
2018-Jun-12 13:44N 38°59' E 001°35'1 5.1
2018-Jun-12 13:29N 38°58' E 001°34'6 0.3
2018-Jun-11 14:09N 38°55' E 001°27'0 2.2
2018-Jun-11 13:59N 38°54' E 001°27'4 0.1
2018-Jun-09 11:29N 38°57' E 001°32'1 0.0
2018-Jun-07 13:11N 38°57' E 001°32'1 4.6
2018-Jun-07 13:00N 38°58' E 001°33'53 1.1
2018-Jun-05 12:34N 39°27' E 002°31'1 4.7
2018-Jun-05 12:24N 39°26' E 002°31'2 5.8
2018-Jun-05 11:59N 39°28' E 002°33'3 6.5
2018-Jun-05 11:30N 39°31' E 002°34'2 3.6
2018-Jun-05 11:00N 39°31' E 002°36'3 6.3
2018-Jun-05 10:30N 39°31' E 002°40'3 6.5
2018-Jun-05 10:00N 39°30' E 002°44'0 0.4
2018-Jun-05 09:30N 39°30' E 002°45'  

Dump ship's entire track history